Pleasant Hill, South Carolina
Current Conditions -  °F | °C
As of 12:55 PM on Monday 24 Nov 2014 (Local Time) from KLKR Reporting Station
Broken Clouds Broken Clouds  
Wind Chill: 72°   Ceiling: 9000
Heat Index: 72°   Visibility: 10mi
Dew Point: 64°   Wind: 10mph
Humidity: 78%   Direction: 200°SSW
Pressure: 29.8"   Gusts: NA
Location:  34.5669°N, 80.7524°W
Report Text: KLKR 241755Z AUTO 20009KT 10SM BKN090 22/18 A2980 RMK AO2
Loading
Personal Weather Stations






























Interactive Weather Map New forecast layout! Learn more

10-Day Weather Forecast

Advertisements
Track Severe Weather on mobile